createdAt,value
2023-03-08T00:01:23.274Z,11.27
2023-03-08T00:05:24.984Z,10.68
2023-03-08T00:09:26.636Z,15.15
2023-03-08T00:13:28.295Z,8.88
2023-03-08T00:17:29.980Z,13.85
2023-03-08T00:21:31.630Z,10.82
2023-03-08T00:25:33.280Z,10.98
2023-03-08T00:29:34.950Z,10.68
2023-03-08T00:33:37.018Z,12.55
2023-03-08T00:37:38.700Z,12.63
2023-03-08T00:41:40.594Z,11.43
2023-03-08T00:45:42.289Z,11.90
2023-03-08T00:49:44.485Z,13.62
2023-03-08T00:53:46.591Z,10.35
2023-03-08T00:57:48.206Z,10.25
2023-03-08T01:01:50.069Z,15.60
2023-03-08T01:05:54.371Z,13.45
2023-03-08T01:09:56.370Z,14.02
2023-03-08T01:13:58.273Z,14.93
2023-03-08T01:17:59.936Z,13.60
2023-03-08T01:22:01.559Z,13.15
2023-03-08T01:26:08.726Z,15.07
2023-03-08T01:30:10.994Z,13.30
2023-03-08T01:34:12.638Z,15.75
2023-03-08T01:38:14.277Z,15.25
2023-03-08T01:42:15.969Z,14.95
2023-03-08T01:46:25.968Z,13.80
2023-03-08T01:50:27.736Z,14.32
2023-03-08T01:54:38.611Z,18.12
2023-03-08T01:58:43.601Z,21.25
2023-03-08T02:02:51.920Z,19.80
2023-03-08T02:06:53.612Z,18.23
2023-03-08T02:10:57.106Z,19.70
2023-03-08T02:14:58.879Z,16.23
2023-03-08T02:19:08.052Z,19.42
2023-03-08T02:23:17.045Z,21.40
2023-03-08T02:27:24.270Z,23.17
2023-03-08T02:31:26.001Z,20.83
2023-03-08T02:35:28.008Z,22.50
2023-03-08T02:39:29.715Z,20.95
2023-03-08T02:43:31.586Z,20.60
2023-03-08T02:47:33.601Z,20.08
2023-03-08T02:51:35.345Z,18.55
2023-03-08T02:55:37.157Z,21.02
2023-03-08T02:59:39.310Z,21.05
2023-03-08T03:03:41.641Z,24.00
2023-03-08T03:07:43.979Z,21.73
2023-03-08T03:11:45.627Z,20.83
2023-03-08T03:15:47.318Z,22.55
2023-03-08T03:19:48.982Z,22.37
2023-03-08T03:23:50.637Z,24.37
2023-03-08T03:27:54.054Z,25.12
2023-03-08T03:31:55.801Z,27.65
2023-03-08T03:35:57.496Z,27.45
2023-03-08T03:39:59.170Z,26.87
2023-03-08T03:44:00.903Z,28.12
2023-03-08T03:48:02.637Z,29.30
2023-03-08T03:52:04.452Z,27.85
2023-03-08T03:56:08.888Z,29.77
2023-03-08T04:00:11.252Z,26.90
2023-03-08T04:04:12.899Z,29.42
2023-03-08T04:08:14.612Z,27.95
2023-03-08T04:12:16.322Z,29.60
2023-03-08T04:16:32.286Z,29.30
2023-03-08T04:20:33.955Z,26.00
2023-03-08T04:24:35.635Z,26.90
2023-03-08T04:28:37.366Z,26.55
2023-03-08T04:32:39.272Z,33.30
2023-03-08T04:36:40.934Z,23.40
2023-03-08T04:41:24.803Z,23.80
2023-03-08T04:45:26.461Z,28.20
2023-03-08T04:49:28.194Z,26.35
2023-03-08T04:53:31.260Z,25.52
2023-03-08T04:57:35.013Z,26.27
2023-03-08T05:01:36.719Z,25.42
2023-03-08T05:05:38.366Z,24.95
2023-03-08T05:09:40.062Z,19.50
2023-03-08T05:13:41.717Z,23.77
2023-03-08T05:17:43.356Z,19.87
2023-03-08T05:21:45.034Z,27.80
2023-03-08T05:25:46.751Z,24.40
2023-03-08T05:29:48.476Z,26.25
2023-03-08T05:33:51.536Z,23.73
2023-03-08T05:37:53.252Z,25.48
2023-03-08T05:41:54.878Z,27.50
2023-03-08T05:45:59.050Z,25.42
2023-03-08T05:50:00.834Z,27.37
2023-03-08T05:54:02.434Z,27.20
2023-03-08T05:58:04.044Z,31.23
2023-03-08T06:02:05.780Z,29.63
2023-03-08T06:06:07.578Z,30.12
2023-03-08T06:10:09.932Z,30.02
2023-03-08T06:14:13.246Z,31.75
2023-03-08T06:18:15.049Z,27.98
2023-03-08T06:22:17.269Z,28.48
2023-03-08T06:26:19.369Z,28.55
2023-03-08T06:30:21.104Z,28.45
2023-03-08T06:34:22.727Z,30.02
2023-03-08T06:38:24.926Z,22.60
2023-03-08T06:42:40.068Z,19.70
2023-03-08T06:46:42.990Z,23.60
2023-03-08T06:50:45.326Z,22.30
2023-03-08T06:54:46.970Z,20.60
2023-03-08T06:58:48.696Z,22.60
2023-03-08T07:02:50.394Z,17.77
2023-03-08T07:06:52.114Z,17.70
2023-03-08T07:10:53.944Z,20.40
2023-03-08T07:14:55.615Z,22.33
2023-03-08T07:18:57.217Z,21.23
2023-03-08T07:23:01.804Z,21.30
2023-03-08T07:27:03.862Z,19.27
2023-03-08T07:31:05.710Z,19.87
2023-03-08T07:35:09.636Z,21.30
2023-03-08T07:39:11.493Z,13.88
2023-03-08T07:43:13.148Z,17.25
2023-03-08T07:47:14.844Z,15.77
2023-03-08T07:51:16.569Z,12.70
2023-03-08T07:55:18.442Z,8.48
2023-03-08T07:59:20.531Z,12.82
2023-03-08T08:03:22.658Z,9.10
2023-03-08T08:07:24.357Z,11.10
2023-03-08T08:11:25.989Z,11.10
2023-03-08T08:15:30.572Z,8.73
2023-03-08T08:19:32.391Z,7.87
2023-03-08T08:23:35.142Z,9.07
2023-03-08T08:27:37.145Z,9.07
2023-03-08T08:31:38.866Z,6.47
2023-03-08T08:35:43.369Z,6.43
2023-03-08T08:39:45.362Z,7.03
2023-03-08T08:43:47.608Z,5.68
2023-03-08T08:47:49.283Z,5.62
2023-03-08T08:51:53.187Z,5.18
2023-03-08T08:55:54.859Z,8.63
2023-03-08T08:59:56.501Z,7.18
2023-03-08T09:03:59.310Z,7.80
2023-03-08T09:08:01.571Z,6.53
2023-03-08T09:12:03.381Z,6.45
2023-03-08T09:16:05.149Z,7.25
2023-03-08T09:20:10.745Z,9.15
2023-03-08T09:24:13.102Z,5.60
2023-03-08T09:28:14.919Z,5.40
2023-03-08T09:32:16.697Z,6.22
2023-03-08T09:36:19.039Z,7.43
2023-03-08T09:40:24.951Z,6.87
2023-03-08T09:44:50.664Z,4.32
2023-03-08T09:48:53.828Z,4.65
2023-03-08T09:53:18.061Z,5.20
2023-03-08T09:57:27.995Z,4.03
2023-03-08T10:01:50.501Z,4.57
2023-03-08T10:06:12.396Z,3.55
2023-03-08T10:10:24.473Z,3.05
2023-03-08T10:14:32.825Z,3.75
2023-03-08T10:18:43.095Z,4.20
2023-03-08T10:22:49.378Z,5.22
2023-03-08T10:26:51.032Z,6.00
2023-03-08T10:30:56.227Z,4.00
2023-03-08T10:35:04.441Z,4.82
2023-03-08T10:39:10.038Z,4.40
2023-03-08T10:43:39.437Z,5.15
2023-03-08T10:47:41.141Z,5.45
2023-03-08T10:51:52.952Z,5.85
2023-03-08T10:55:55.411Z,8.23
2023-03-08T11:00:02.420Z,7.35
2023-03-08T11:08:22.852Z,5.72
2023-03-08T11:12:26.073Z,6.03
2023-03-08T11:16:37.081Z,6.40
2023-03-08T11:20:53.333Z,5.07
2023-03-08T11:25:14.708Z,6.25
2023-03-08T11:29:31.952Z,4.72
2023-03-08T11:34:01.990Z,4.57
2023-03-08T11:38:18.685Z,7.90
2023-03-08T11:42:42.072Z,4.45
2023-03-08T11:46:43.748Z,4.68
2023-03-08T11:50:53.572Z,4.78
2023-03-08T11:55:20.933Z,5.60
2023-03-08T11:59:34.433Z,5.28
2023-03-08T12:03:40.792Z,5.80
2023-03-08T12:07:52.673Z,6.10
2023-03-08T12:12:16.139Z,5.07
2023-03-08T12:16:20.037Z,5.97
2023-03-08T12:20:23.424Z,6.15
2023-03-08T12:24:34.200Z,7.75
2023-03-08T12:28:43.835Z,7.05
2023-03-08T12:32:47.313Z,7.05
2023-03-08T12:36:49.161Z,7.22
2023-03-08T12:40:53.650Z,8.85
2023-03-08T12:45:20.736Z,8.25
2023-03-08T12:49:30.510Z,8.88
2023-03-08T12:53:55.410Z,8.43
2023-03-08T12:58:00.441Z,8.85
2023-03-08T13:02:24.300Z,7.82
2023-03-08T13:06:25.983Z,8.50
2023-03-08T13:10:37.100Z,9.50
2023-03-08T13:14:41.981Z,7.22
2023-03-08T13:18:49.072Z,8.05
2023-03-08T13:23:10.175Z,10.45
2023-03-08T13:27:18.022Z,8.95
2023-03-08T13:31:22.309Z,9.77
2023-03-08T13:35:24.718Z,9.40
2023-03-08T13:39:29.934Z,8.55
2023-03-08T13:43:34.167Z,6.37
2023-03-08T13:47:39.292Z,6.72
2023-03-08T13:51:43.536Z,7.05
2023-03-08T13:55:47.318Z,6.85
2023-03-08T13:59:54.575Z,11.38
2023-03-08T14:03:58.245Z,7.43
2023-03-08T14:08:05.720Z,9.43
2023-03-08T14:12:07.738Z,9.00
2023-03-08T14:16:22.888Z,8.25
2023-03-08T14:20:25.522Z,11.90
2023-03-08T14:24:30.346Z,9.48
2023-03-08T14:28:41.508Z,11.32
2023-03-08T14:33:01.202Z,12.98
2023-03-08T14:37:12.166Z,10.00
2023-03-08T14:41:15.843Z,11.05
2023-03-08T14:45:17.748Z,9.25
2023-03-08T14:49:22.683Z,12.00
2023-03-08T14:53:34.662Z,11.35
2023-03-08T14:57:36.332Z,9.38
2023-03-08T15:01:39.229Z,10.45
2023-03-08T15:05:41.009Z,10.93
2023-03-08T15:09:42.878Z,9.25
2023-03-08T15:13:45.972Z,12.48
2023-03-08T15:17:48.344Z,13.10
2023-03-08T15:21:50.155Z,11.55
2023-03-08T15:25:52.212Z,10.43
2023-03-08T15:29:53.861Z,11.23
2023-03-08T15:33:55.607Z,10.32
2023-03-08T15:37:57.321Z,11.80
2023-03-08T15:41:59.815Z,12.45
2023-03-08T15:46:01.447Z,14.68
2023-03-08T15:50:04.952Z,14.38
2023-03-08T15:54:07.058Z,13.85
2023-03-08T15:58:10.740Z,15.98
2023-03-08T16:02:16.227Z,20.95
2023-03-08T16:06:18.140Z,13.32
2023-03-08T16:10:19.910Z,15.18
2023-03-08T16:14:21.737Z,14.02
2023-03-08T16:18:23.522Z,15.00
2023-03-08T16:22:26.898Z,13.52
2023-03-08T16:26:30.240Z,14.05
2023-03-08T16:30:33.027Z,14.95
2023-03-08T16:34:34.750Z,14.20
2023-03-08T16:38:36.422Z,14.15
2023-03-08T16:42:38.051Z,14.02
2023-03-08T16:46:41.731Z,16.08
2023-03-08T16:50:50.391Z,16.58
2023-03-08T16:54:52.034Z,17.17
2023-03-08T16:58:56.323Z,16.23
2023-03-08T17:02:57.943Z,19.67
2023-03-08T17:06:59.578Z,20.75
2023-03-08T17:11:03.484Z,19.98
2023-03-08T17:15:05.676Z,21.75
2023-03-08T17:19:08.907Z,22.83
2023-03-08T17:23:12.070Z,24.05
2023-03-08T17:27:14.819Z,22.83
2023-03-08T17:31:20.626Z,24.73
2023-03-08T17:35:22.543Z,27.03
2023-03-08T17:39:24.209Z,26.40
2023-03-08T17:43:26.157Z,26.10
2023-03-08T17:47:27.799Z,27.75
2023-03-08T17:51:30.899Z,28.50
2023-03-08T17:55:32.525Z,26.10
2023-03-08T17:59:34.195Z,29.20
2023-03-08T18:03:36.444Z,31.08
2023-03-08T18:07:41.258Z,27.33
2023-03-08T18:11:43.370Z,29.02
2023-03-08T18:15:44.995Z,26.42
2023-03-08T18:19:47.913Z,29.55
2023-03-08T18:23:49.698Z,28.90
2023-03-08T18:27:51.549Z,33.05
2023-03-08T18:31:53.243Z,29.33
2023-03-08T18:35:58.649Z,27.15
2023-03-08T18:40:00.322Z,30.33
2023-03-08T18:44:01.974Z,30.25
2023-03-08T18:48:03.657Z,31.05
2023-03-08T18:52:05.565Z,31.87
2023-03-08T18:56:07.598Z,30.85
2023-03-08T19:00:11.722Z,30.98
2023-03-08T19:04:13.330Z,30.65
2023-03-08T19:08:15.017Z,30.90
2023-03-08T19:12:16.747Z,32.58
2023-03-08T19:16:26.779Z,33.92
2023-03-08T19:20:29.312Z,32.63
2023-03-08T19:24:31.192Z,32.42
2023-03-08T19:28:32.794Z,32.88
2023-03-08T19:32:34.574Z,34.60
2023-03-08T19:36:37.289Z,31.52
2023-03-08T19:40:43.546Z,31.33
2023-03-08T19:44:48.321Z,32.42
2023-03-08T19:48:50.098Z,32.17
2023-03-08T19:52:51.722Z,34.38
2023-03-08T19:56:54.686Z,34.28
2023-03-08T20:01:08.463Z,34.72
2023-03-08T20:05:10.154Z,36.53
2023-03-08T20:09:13.423Z,34.70
2023-03-08T20:13:15.262Z,35.47
2023-03-08T20:17:16.930Z,35.58
2023-03-08T20:21:20.645Z,33.97
2023-03-08T20:25:22.336Z,34.88
2023-03-08T20:29:24.049Z,32.35
2023-03-08T20:33:25.922Z,37.30
2023-03-08T20:37:27.638Z,36.15
2023-03-08T20:41:30.085Z,37.97
2023-03-08T20:45:31.834Z,35.40
2023-03-08T20:49:33.592Z,37.05
2023-03-08T20:53:35.452Z,35.40
2023-03-08T20:57:37.134Z,33.95
2023-03-08T21:01:40.695Z,33.90
2023-03-08T21:05:42.788Z,38.53
2023-03-08T21:09:44.924Z,34.80
2023-03-08T21:13:50.388Z,34.80
2023-03-08T21:17:52.300Z,34.67
2023-03-08T21:21:54.046Z,36.67
2023-03-08T21:25:59.513Z,36.83
2023-03-08T21:30:01.720Z,33.35
2023-03-08T21:34:05.740Z,33.70
2023-03-08T21:38:08.109Z,33.78
2023-03-08T21:42:09.786Z,40.53
2023-03-08T21:46:11.529Z,34.10
2023-03-08T21:50:13.229Z,37.03
2023-03-08T21:54:15.477Z,38.40
2023-03-08T21:58:17.194Z,35.05
2023-03-08T22:02:18.855Z,36.35
2023-03-08T22:06:20.909Z,34.30
2023-03-08T22:10:22.601Z,35.25
2023-03-08T22:14:24.327Z,37.25
2023-03-08T22:18:25.999Z,35.95
2023-03-08T22:22:27.708Z,33.58
2023-03-08T22:26:31.073Z,35.03
2023-03-08T22:30:32.726Z,36.15
2023-03-08T22:34:34.534Z,37.70
2023-03-08T22:38:36.694Z,32.42
2023-03-08T22:42:38.766Z,33.92
2023-03-08T22:46:40.762Z,36.38
2023-03-08T22:50:42.533Z,38.90
2023-03-08T22:54:44.697Z,35.33
2023-03-08T22:58:46.560Z,36.25
2023-03-08T23:02:48.893Z,37.20
2023-03-08T23:06:50.596Z,36.40
2023-03-08T23:10:52.251Z,39.22
2023-03-08T23:14:54.049Z,33.95
2023-03-08T23:18:55.788Z,35.38
2023-03-08T23:22:57.842Z,32.42
2023-03-08T23:27:01.807Z,34.55
2023-03-08T23:31:09.797Z,32.35
2023-03-08T23:35:12.568Z,30.98
2023-03-08T23:39:14.378Z,29.15
2023-03-08T23:43:16.038Z,28.42
2023-03-08T23:47:17.688Z,27.23
2023-03-08T23:51:21.548Z,26.80
2023-03-08T23:55:23.241Z,25.75
2023-03-08T23:59:25.012Z,23.55
